createdAt,value
2023-03-30T00:00:08.822Z,1.35
2023-03-30T00:02:48.211Z,2.25
2023-03-30T00:05:19.135Z,4.68
2023-03-30T00:07:51.714Z,1.60
2023-03-30T00:10:20.694Z,3.75
2023-03-30T00:12:51.646Z,9.35
2023-03-30T00:15:23.155Z,3.25
2023-03-30T00:17:55.687Z,1.13
2023-03-30T00:20:24.765Z,6.07
2023-03-30T00:22:53.559Z,1.42
2023-03-30T00:25:24.156Z,4.07
2023-03-30T00:27:53.228Z,1.92
2023-03-30T00:30:22.415Z,4.28
2023-03-30T00:32:53.013Z,1.80
2023-03-30T00:35:26.076Z,1.88
2023-03-30T00:37:55.068Z,2.50
2023-03-30T00:40:29.822Z,1.88
2023-03-30T00:43:08.350Z,2.05
2023-03-30T00:45:37.986Z,4.50
2023-03-30T00:48:16.280Z,0.93
2023-03-30T00:50:54.748Z,1.05
2023-03-30T00:53:35.510Z,0.98
2023-03-30T00:56:08.316Z,3.45
2023-03-30T00:58:39.568Z,0.80
2023-03-30T01:01:11.707Z,0.77
2023-03-30T01:03:51.975Z,1.58
2023-03-30T01:06:26.052Z,2.22
2023-03-30T01:08:56.529Z,1.90
2023-03-30T01:11:29.309Z,9.25
2023-03-30T01:14:02.767Z,1.40
2023-03-30T01:17:13.251Z,1.50
2023-03-30T01:20:17.461Z,3.80
2023-03-30T01:23:11.567Z,2.03
2023-03-30T01:26:00.541Z,1.42
2023-03-30T01:28:43.002Z,2.90
2023-03-30T01:31:32.781Z,4.32
2023-03-30T01:34:11.018Z,2.17
2023-03-30T01:36:49.609Z,0.95
2023-03-30T01:39:23.765Z,1.33
2023-03-30T01:42:18.851Z,0.60
2023-03-30T01:45:12.798Z,2.78
2023-03-30T01:47:53.849Z,1.05
2023-03-30T01:50:30.835Z,1.90
2023-03-30T01:53:08.471Z,0.80
2023-03-30T01:56:06.013Z,2.22
2023-03-30T01:58:52.687Z,2.65
2023-03-30T02:01:24.036Z,1.60
2023-03-30T02:03:59.073Z,3.10
2023-03-30T02:06:43.951Z,1.15
2023-03-30T02:09:22.225Z,0.73
2023-03-30T02:11:54.442Z,0.95
2023-03-30T02:14:30.014Z,1.92
2023-03-30T02:17:14.585Z,1.50
2023-03-30T02:19:47.128Z,2.75
2023-03-30T02:22:20.142Z,2.38
2023-03-30T02:25:00.093Z,1.85
2023-03-30T02:27:35.132Z,2.53
2023-03-30T02:30:14.241Z,2.38
2023-03-30T02:33:01.625Z,3.13
2023-03-30T02:35:42.172Z,2.05
2023-03-30T02:38:26.974Z,2.15
2023-03-30T02:41:18.533Z,2.03
2023-03-30T02:44:22.190Z,2.25
2023-03-30T02:46:56.983Z,16.45
2023-03-30T02:50:18.874Z,39.05
2023-03-30T02:52:59.738Z,32.40
2023-03-30T02:55:49.125Z,29.05
2023-03-30T02:59:01.812Z,28.55
2023-03-30T03:01:34.279Z,23.27
2023-03-30T03:04:15.725Z,17.38
2023-03-30T03:07:15.620Z,17.60
2023-03-30T03:09:48.391Z,13.90
2023-03-30T03:12:18.360Z,12.15
2023-03-30T03:14:51.104Z,8.80
2023-03-30T03:17:23.899Z,13.73
2023-03-30T03:19:57.431Z,59.42
2023-03-30T03:22:29.476Z,55.17
2023-03-30T03:25:04.688Z,27.45
2023-03-30T03:42:26.462Z,4.55
2023-03-30T03:53:18.634Z,2.77
2023-03-30T04:03:55.536Z,1.85
2023-03-30T04:06:47.126Z,2.53
2023-03-30T04:10:04.597Z,1.75
2023-03-30T04:13:48.116Z,2.20
2023-03-30T04:21:08.785Z,1.52
2023-03-30T04:24:19.698Z,3.00
2023-03-30T04:28:01.744Z,3.10
2023-03-30T04:31:01.535Z,3.72
2023-03-30T04:33:56.512Z,5.28
2023-03-30T04:37:02.948Z,2.80
2023-03-30T04:40:01.497Z,5.40
2023-03-30T04:42:51.416Z,6.72
2023-03-30T04:45:21.875Z,5.15
2023-03-30T04:48:12.863Z,3.33
2023-03-30T04:51:24.755Z,5.40
2023-03-30T04:54:14.657Z,4.25
2023-03-30T04:57:27.112Z,35.20
2023-03-30T05:00:38.230Z,78.47
2023-03-30T05:03:08.603Z,45.30
2023-03-30T05:05:58.766Z,11.63
2023-03-30T05:08:45.914Z,7.25
2023-03-30T05:11:34.870Z,11.68
2023-03-30T05:14:33.420Z,15.25
2023-03-30T05:17:23.441Z,7.68
2023-03-30T05:20:10.188Z,3.40
2023-03-30T05:23:02.533Z,4.57
2023-03-30T05:26:01.834Z,5.78
2023-03-30T05:28:52.589Z,5.03
2023-03-30T05:31:22.432Z,5.30
2023-03-30T05:34:10.102Z,3.03
2023-03-30T05:36:41.594Z,6.03
2023-03-30T05:39:36.939Z,4.07
2023-03-30T05:42:44.401Z,4.80
2023-03-30T05:45:38.480Z,2.70
2023-03-30T05:48:25.598Z,5.10
2023-03-30T05:51:36.525Z,3.13
2023-03-30T05:54:38.317Z,4.20
2023-03-30T05:57:46.654Z,2.65
2023-03-30T06:00:23.442Z,3.30
2023-03-30T06:03:01.786Z,6.97
2023-03-30T06:05:37.539Z,3.03
2023-03-30T06:08:10.471Z,3.38
2023-03-30T06:10:39.597Z,3.28
2023-03-30T06:13:11.557Z,4.13
2023-03-30T06:15:56.240Z,13.18
2023-03-30T06:18:34.466Z,10.55
2023-03-30T06:21:08.103Z,5.72
2023-03-30T06:24:07.078Z,6.80
2023-03-30T06:26:40.450Z,4.10
2023-03-30T06:29:09.626Z,3.17
2023-03-30T06:31:42.632Z,3.83
2023-03-30T06:34:32.916Z,4.47
2023-03-30T06:37:05.577Z,6.25
2023-03-30T06:39:40.475Z,4.35
2023-03-30T06:42:11.295Z,4.80
2023-03-30T06:45:27.395Z,5.18
2023-03-30T06:48:09.240Z,3.47
2023-03-30T06:51:09.096Z,3.15
2023-03-30T06:54:08.584Z,3.05
2023-03-30T06:56:52.633Z,3.05
2023-03-30T06:59:55.631Z,2.83
2023-03-30T07:02:36.511Z,2.42
2023-03-30T07:05:37.738Z,4.43
2023-03-30T07:08:26.411Z,2.90
2023-03-30T07:10:57.967Z,4.88
2023-03-30T07:13:32.063Z,4.72
2023-03-30T07:16:01.060Z,3.85
2023-03-30T07:18:36.111Z,6.57
2023-03-30T07:21:06.862Z,3.22
2023-03-30T07:23:49.341Z,2.63
2023-03-30T07:26:30.315Z,5.20
2023-03-30T07:29:12.614Z,2.95
2023-03-30T07:31:45.820Z,2.90
2023-03-30T07:34:21.713Z,3.53
2023-03-30T07:36:57.516Z,3.83
2023-03-30T07:39:34.041Z,3.83
2023-03-30T07:42:06.847Z,4.30
2023-03-30T07:44:36.920Z,3.67
2023-03-30T07:47:11.753Z,3.63
2023-03-30T07:49:41.622Z,5.82
2023-03-30T07:52:17.095Z,5.90
2023-03-30T07:55:00.517Z,9.57
2023-03-30T07:57:52.354Z,13.50
2023-03-30T08:00:22.711Z,10.10
2023-03-30T08:03:27.018Z,10.75
2023-03-30T08:06:02.096Z,14.48
2023-03-30T08:08:44.138Z,8.70
2023-03-30T08:11:19.795Z,9.32
2023-03-30T08:13:54.413Z,6.93
2023-03-30T08:16:25.715Z,7.20
2023-03-30T08:19:12.437Z,7.80
2023-03-30T08:21:41.484Z,5.13
2023-03-30T08:24:14.828Z,10.45
2023-03-30T08:29:33.971Z,11.15
2023-03-30T08:32:05.421Z,4.47
2023-03-30T08:34:37.295Z,4.70
2023-03-30T08:37:07.061Z,7.45
2023-03-30T08:39:37.088Z,2.67
2023-03-30T08:42:37.239Z,4.78
2023-03-30T08:45:20.484Z,5.65
2023-03-30T08:47:52.352Z,6.40
2023-03-30T08:50:44.380Z,3.78
2023-03-30T08:53:13.752Z,3.28
2023-03-30T08:55:53.546Z,3.35
2023-03-30T08:58:55.049Z,3.15
2023-03-30T09:01:49.002Z,5.72
2023-03-30T09:04:39.358Z,16.98
2023-03-30T09:07:20.815Z,8.45
2023-03-30T09:09:53.534Z,9.45
2023-03-30T09:12:43.491Z,6.32
2023-03-30T09:15:31.858Z,2.30
2023-03-30T09:18:20.735Z,5.07
2023-03-30T09:20:55.495Z,2.45
2023-03-30T09:23:25.298Z,8.75
2023-03-30T09:26:11.457Z,4.35
2023-03-30T09:28:58.826Z,3.40
2023-03-30T09:31:33.867Z,4.05
2023-03-30T09:34:09.172Z,5.13
2023-03-30T09:36:41.340Z,4.30
2023-03-30T09:39:25.095Z,3.60
2023-03-30T09:42:14.988Z,3.75
2023-03-30T09:44:46.581Z,4.45
2023-03-30T09:47:42.703Z,4.38
2023-03-30T09:50:21.385Z,22.65
2023-03-30T09:53:10.954Z,11.40
2023-03-30T09:55:41.724Z,5.40
2023-03-30T09:58:13.737Z,5.13
2023-03-30T10:00:42.748Z,5.68
2023-03-30T10:03:22.117Z,8.10
2023-03-30T10:06:08.274Z,9.88
2023-03-30T10:08:55.900Z,5.85
2023-03-30T10:11:42.731Z,6.88
2023-03-30T10:14:34.968Z,9.05
2023-03-30T10:17:05.741Z,8.45
2023-03-30T10:19:45.847Z,5.20
2023-03-30T10:22:20.785Z,3.85
2023-03-30T10:24:53.897Z,3.90
2023-03-30T10:27:35.692Z,3.63
2023-03-30T10:30:13.781Z,7.10
2023-03-30T10:32:48.857Z,7.35
2023-03-30T10:35:27.538Z,3.60
2023-03-30T10:37:57.959Z,6.00
2023-03-30T10:40:42.934Z,4.18
2023-03-30T10:43:20.787Z,2.90
2023-03-30T10:45:54.740Z,4.30
2023-03-30T10:48:46.566Z,4.15
2023-03-30T10:51:33.335Z,7.78
2023-03-30T10:54:30.848Z,4.82
2023-03-30T10:57:24.345Z,4.50
2023-03-30T11:00:26.542Z,5.97
2023-03-30T11:03:11.073Z,2.45
2023-03-30T11:05:53.264Z,4.25
2023-03-30T11:08:49.810Z,4.70
2023-03-30T11:11:23.950Z,4.97
2023-03-30T11:13:58.857Z,4.60
2023-03-30T11:16:53.958Z,4.88
2023-03-30T11:23:20.774Z,2.65
2023-03-30T11:26:03.786Z,2.65
2023-03-30T11:28:56.993Z,2.40
2023-03-30T11:31:36.591Z,2.45
2023-03-30T11:35:09.996Z,3.50
2023-03-30T11:38:01.283Z,2.75
2023-03-30T11:40:56.817Z,4.63
2023-03-30T11:43:29.411Z,1.52
2023-03-30T11:46:22.608Z,2.67
2023-03-30T11:50:29.755Z,3.53
2023-03-30T11:52:39.871Z,2.85
2023-03-30T11:55:47.044Z,2.78
2023-03-30T11:58:32.373Z,2.22
2023-03-30T12:01:10.001Z,2.42
2023-03-30T12:03:44.102Z,4.32
2023-03-30T12:07:00.369Z,5.82
2023-03-30T12:09:44.095Z,3.53
2023-03-30T12:12:26.652Z,4.53
2023-03-30T12:15:24.989Z,3.53
2023-03-30T12:18:06.199Z,3.00
2023-03-30T12:20:41.248Z,3.15
2023-03-30T12:23:10.161Z,1.95
2023-03-30T12:26:21.591Z,2.28
2023-03-30T12:32:04.869Z,5.43
2023-03-30T12:34:54.827Z,3.83
2023-03-30T12:37:36.771Z,3.63
2023-03-30T12:40:10.161Z,6.43
2023-03-30T12:42:49.311Z,3.28
2023-03-30T12:45:36.226Z,6.55
2023-03-30T12:48:38.642Z,5.78
2023-03-30T12:51:17.552Z,3.97
2023-03-30T12:54:00.417Z,6.03
2023-03-30T12:57:23.411Z,4.25
2023-03-30T13:00:29.436Z,4.68
2023-03-30T13:03:40.973Z,4.35
2023-03-30T13:08:55.304Z,8.68
2023-03-30T13:11:44.160Z,10.48
2023-03-30T13:14:32.727Z,8.45
2023-03-30T13:17:07.076Z,3.08
2023-03-30T13:19:47.407Z,3.72
2023-03-30T13:22:16.460Z,3.35
2023-03-30T13:24:47.393Z,3.42
2023-03-30T13:27:19.453Z,6.68
2023-03-30T13:30:09.566Z,14.88
2023-03-30T13:32:47.662Z,10.63
2023-03-30T13:36:00.124Z,7.60
2023-03-30T13:38:41.338Z,4.28
2023-03-30T13:41:18.186Z,5.47
2023-03-30T13:44:25.134Z,3.25
2023-03-30T13:47:31.311Z,3.25
2023-03-30T13:50:18.425Z,5.25
2023-03-30T13:52:51.734Z,6.88
2023-03-30T13:55:33.804Z,9.63
2023-03-30T13:58:14.295Z,5.80
2023-03-30T14:01:14.712Z,4.68
2023-03-30T14:03:47.366Z,2.85
2023-03-30T14:06:18.928Z,3.63
2023-03-30T14:09:09.313Z,2.75
2023-03-30T14:11:47.547Z,3.78
2023-03-30T14:14:38.973Z,3.60
2023-03-30T14:17:23.523Z,2.42
2023-03-30T14:20:29.241Z,4.60
2023-03-30T14:23:02.847Z,4.63
2023-03-30T14:25:41.130Z,4.28
2023-03-30T14:28:17.765Z,2.70
2023-03-30T14:33:30.531Z,8.68
2023-03-30T14:36:04.754Z,8.10
2023-03-30T14:38:51.222Z,8.32
2023-03-30T14:41:24.718Z,7.78
2023-03-30T14:44:08.984Z,6.70
2023-03-30T14:46:48.741Z,25.27
2023-03-30T14:49:31.129Z,28.48
2023-03-30T14:52:23.039Z,33.90
2023-03-30T14:55:06.077Z,29.05
2023-03-30T14:57:40.259Z,14.10
2023-03-30T15:00:22.443Z,10.95
2023-03-30T15:03:00.517Z,12.02
2023-03-30T15:05:38.928Z,5.63
2023-03-30T15:08:14.841Z,5.45
2023-03-30T15:10:59.644Z,6.57
2023-03-30T15:13:42.572Z,5.72
2023-03-30T15:16:17.182Z,2.80
2023-03-30T15:19:42.462Z,6.43
2023-03-30T15:22:32.587Z,9.65
2023-03-30T15:25:38.812Z,6.88
2023-03-30T15:28:31.994Z,11.93
2023-03-30T15:31:01.299Z,13.65
2023-03-30T15:33:37.238Z,11.00
2023-03-30T15:36:21.243Z,12.85
2023-03-30T15:39:21.806Z,9.05
2023-03-30T15:42:29.105Z,11.48
2023-03-30T15:45:15.457Z,10.68
2023-03-30T15:47:46.559Z,10.20
2023-03-30T15:50:27.435Z,7.25
2023-03-30T15:53:24.886Z,7.03
2023-03-30T15:55:53.997Z,6.15
2023-03-30T15:58:29.309Z,8.18
2023-03-30T16:00:58.748Z,7.60
2023-03-30T16:03:40.343Z,5.25
2023-03-30T16:06:16.823Z,7.35
2023-03-30T16:08:51.596Z,9.13
2023-03-30T16:11:21.566Z,7.63
2023-03-30T16:13:58.233Z,8.10
2023-03-30T16:16:29.399Z,6.25
2023-03-30T16:20:12.751Z,6.35
2023-03-30T16:22:48.206Z,9.73
2023-03-30T16:25:21.124Z,12.77
2023-03-30T16:27:53.687Z,10.45
2023-03-30T16:30:32.037Z,10.75
2023-03-30T16:33:06.923Z,14.50
2023-03-30T16:35:59.941Z,8.50
2023-03-30T16:38:33.752Z,11.70
2023-03-30T16:41:28.648Z,20.65
2023-03-30T16:43:58.327Z,11.60
2023-03-30T16:46:30.291Z,6.75
2023-03-30T16:49:06.580Z,16.13
2023-03-30T16:51:39.392Z,15.40
2023-03-30T16:54:29.501Z,13.60
2023-03-30T16:57:04.000Z,10.32
2023-03-30T17:00:04.466Z,13.95
2023-03-30T17:02:23.887Z,9.85
2023-03-30T17:05:04.494Z,14.10
2023-03-30T17:08:07.971Z,14.00
2023-03-30T17:11:10.978Z,15.07
2023-03-30T17:13:48.044Z,12.88
2023-03-30T17:16:25.357Z,14.10
2023-03-30T17:21:30.283Z,10.75
2023-03-30T17:25:11.592Z,9.57
2023-03-30T17:28:16.194Z,10.75
2023-03-30T17:31:51.733Z,16.58
2023-03-30T17:35:45.109Z,18.70
2023-03-30T17:38:13.873Z,11.25
2023-03-30T17:40:45.253Z,15.68
2023-03-30T17:43:18.649Z,13.98
2023-03-30T17:45:51.006Z,14.63
2023-03-30T17:48:40.434Z,15.65
2023-03-30T17:51:13.388Z,16.25
2023-03-30T17:53:43.501Z,14.90
2023-03-30T17:56:17.448Z,14.85
2023-03-30T18:01:37.859Z,15.02
2023-03-30T18:05:25.452Z,12.48
2023-03-30T18:08:28.250Z,17.05
2023-03-30T18:11:02.147Z,18.38
2023-03-30T18:16:43.446Z,13.95
2023-03-30T18:19:13.663Z,26.45
2023-03-30T18:21:52.197Z,18.23
2023-03-30T18:24:37.898Z,13.02
2023-03-30T18:27:07.337Z,15.75
2023-03-30T18:30:05.950Z,15.13
2023-03-30T18:32:47.174Z,19.00
2023-03-30T18:35:33.960Z,15.25
2023-03-30T18:38:15.752Z,13.82
2023-03-30T18:40:47.366Z,23.65
2023-03-30T18:43:19.152Z,20.65
2023-03-30T18:45:50.362Z,17.90
2023-03-30T18:48:22.258Z,15.23
2023-03-30T18:51:00.855Z,11.40
2023-03-30T18:53:33.031Z,15.73
2023-03-30T18:56:08.397Z,16.88
2023-03-30T18:58:42.583Z,22.70
2023-03-30T19:01:16.859Z,14.77
2023-03-30T19:03:45.959Z,17.27
2023-03-30T19:06:20.717Z,16.77
2023-03-30T19:08:50.014Z,12.55
2023-03-30T19:11:23.002Z,17.40
2023-03-30T19:13:57.342Z,15.02
2023-03-30T19:16:30.189Z,21.23
2023-03-30T19:18:59.102Z,14.38
2023-03-30T19:21:30.612Z,17.63
2023-03-30T19:24:01.879Z,24.85
2023-03-30T19:26:50.650Z,17.23
2023-03-30T19:29:23.802Z,17.85
2023-03-30T19:32:14.647Z,15.15
2023-03-30T19:35:07.457Z,19.17
2023-03-30T19:37:44.269Z,18.10
2023-03-30T19:40:17.068Z,14.52
2023-03-30T19:42:49.607Z,20.20
2023-03-30T19:45:26.552Z,17.02
2023-03-30T19:47:59.142Z,14.85
2023-03-30T19:50:30.306Z,13.40
2023-03-30T19:53:07.991Z,17.60
2023-03-30T19:55:39.259Z,15.63
2023-03-30T19:58:10.615Z,13.18
2023-03-30T20:00:43.609Z,18.45
2023-03-30T20:03:16.159Z,17.25
2023-03-30T20:05:50.847Z,13.73
2023-03-30T20:08:24.563Z,17.17
2023-03-30T20:11:14.083Z,13.23
2023-03-30T20:13:46.536Z,15.00
2023-03-30T20:16:22.137Z,23.40
2023-03-30T20:18:53.597Z,15.32
2023-03-30T20:21:24.311Z,13.43
2023-03-30T20:23:53.366Z,8.43
2023-03-30T20:26:22.332Z,18.65
2023-03-30T20:28:51.851Z,15.93
2023-03-30T20:31:21.729Z,13.65
2023-03-30T20:33:51.099Z,18.08
2023-03-30T20:36:29.542Z,15.95
2023-03-30T20:39:07.233Z,11.23
2023-03-30T20:41:42.561Z,17.45
2023-03-30T20:44:18.889Z,12.20
2023-03-30T20:46:51.068Z,12.48
2023-03-30T20:50:09.618Z,17.23
2023-03-30T20:53:11.081Z,13.13
2023-03-30T20:55:40.374Z,14.25
2023-03-30T20:58:09.801Z,13.55
2023-03-30T21:00:44.979Z,17.92
2023-03-30T21:03:14.937Z,15.32
2023-03-30T21:05:46.932Z,7.50
2023-03-30T21:08:15.914Z,19.75
2023-03-30T21:10:44.808Z,8.75
2023-03-30T21:13:15.781Z,11.32
2023-03-30T21:15:44.945Z,12.98
2023-03-30T21:18:13.896Z,9.98
2023-03-30T21:20:52.240Z,11.93
2023-03-30T21:23:43.126Z,8.45
2023-03-30T21:26:19.256Z,14.90
2023-03-30T21:28:53.310Z,8.27
2023-03-30T21:31:25.577Z,10.23
2023-03-30T21:33:58.218Z,11.27
2023-03-30T21:36:30.624Z,8.77
2023-03-30T21:39:25.706Z,13.27
2023-03-30T21:41:54.874Z,8.15
2023-03-30T21:44:25.806Z,9.68
2023-03-30T21:46:59.510Z,13.13
2023-03-30T21:52:51.112Z,9.32
2023-03-30T21:55:31.703Z,9.32
2023-03-30T21:58:09.590Z,10.50
2023-03-30T22:00:43.926Z,13.43
2023-03-30T22:03:14.772Z,5.35
2023-03-30T22:05:44.579Z,8.23
2023-03-30T22:08:27.201Z,9.93
2023-03-30T22:11:03.381Z,9.70
2023-03-30T22:13:34.372Z,9.75
2023-03-30T22:16:17.054Z,10.40
2023-03-30T22:18:47.467Z,6.40
2023-03-30T22:21:35.022Z,8.48
2023-03-30T22:24:06.422Z,3.42
2023-03-30T22:29:37.698Z,5.82
2023-03-30T22:32:07.917Z,8.40
2023-03-30T22:35:07.728Z,8.95
2023-03-30T22:40:44.710Z,8.23
2023-03-30T22:43:26.746Z,9.73
2023-03-30T22:46:05.534Z,14.43
2023-03-30T22:48:58.104Z,16.55
2023-03-30T22:52:12.217Z,9.93
2023-03-30T22:54:44.560Z,4.93
2023-03-30T22:57:19.785Z,10.57
2023-03-30T22:59:48.969Z,9.77
2023-03-30T23:02:18.988Z,8.68
2023-03-30T23:04:58.737Z,7.50
2023-03-30T23:07:29.700Z,7.78
2023-03-30T23:10:25.790Z,7.90
2023-03-30T23:13:20.193Z,18.48
2023-03-30T23:15:51.854Z,11.85
2023-03-30T23:18:23.817Z,7.38
2023-03-30T23:21:01.043Z,7.78
2023-03-30T23:23:35.653Z,7.53
2023-03-30T23:26:10.825Z,6.47
2023-03-30T23:28:49.654Z,6.35
2023-03-30T23:31:25.882Z,11.20
2023-03-30T23:33:58.100Z,3.63
2023-03-30T23:36:30.089Z,7.32
2023-03-30T23:39:01.927Z,8.10
2023-03-30T23:41:49.148Z,12.00
2023-03-30T23:44:18.225Z,8.35
2023-03-30T23:46:53.297Z,8.27
2023-03-30T23:49:34.422Z,6.28
2023-03-30T23:52:18.210Z,8.45
2023-03-30T23:55:09.560Z,10.07
2023-03-30T23:57:44.941Z,8.60
